createdAt,value
2022-08-11T00:01:15.577Z,99578.13
2022-08-11T00:03:50.247Z,99577.28
2022-08-11T00:06:28.473Z,99570.66
2022-08-11T00:08:57.907Z,99575.75
2022-08-11T00:11:35.603Z,99575.06
2022-08-11T00:14:06.427Z,99573.53
2022-08-11T00:16:35.842Z,99571.69
2022-08-11T00:19:04.475Z,99565.25
2022-08-11T00:22:05.379Z,99568.47
2022-08-11T00:24:53.438Z,99567.81
2022-08-11T00:27:33.603Z,99571.53
2022-08-11T00:30:04.651Z,99572.53
2022-08-11T00:32:33.937Z,99572.03
2022-08-11T00:35:54.655Z,99565.44
2022-08-11T00:37:58.854Z,99577.59
2022-08-11T00:40:38.866Z,99571.34
2022-08-11T00:43:20.870Z,99578.25
2022-08-11T00:46:12.885Z,99581.31
2022-08-11T00:48:50.924Z,99581.13
2022-08-11T00:52:05.174Z,99578.63
2022-08-11T00:55:01.059Z,99574.72
2022-08-11T00:58:21.782Z,99583.84
2022-08-11T01:01:09.394Z,99578.59
2022-08-11T01:04:01.109Z,99576.41
2022-08-11T01:07:02.193Z,99580.97
2022-08-11T01:09:50.591Z,99579.88
2022-08-11T01:12:42.420Z,99585.63
2022-08-11T01:15:35.411Z,99577.34
2022-08-11T01:18:42.322Z,99583.91
2022-08-11T01:21:45.689Z,99585.63
2022-08-11T01:25:04.367Z,99587.47
2022-08-11T01:28:15.435Z,99588.34
2022-08-11T01:31:21.253Z,99577.94
2022-08-11T01:34:34.073Z,99585.91
2022-08-11T01:37:31.582Z,99582.66
2022-08-11T01:40:26.174Z,99583.50
2022-08-11T01:43:46.566Z,99594.00
2022-08-11T01:46:18.574Z,99589.66
2022-08-11T01:50:06.742Z,99580.19
2022-08-11T01:52:15.363Z,99593.06
2022-08-11T01:54:57.949Z,99593.09
2022-08-11T01:57:37.535Z,99586.22
2022-08-11T02:00:14.679Z,99590.25
2022-08-11T02:02:55.665Z,99598.34
2022-08-11T02:06:02.705Z,99600.63
2022-08-11T02:08:50.715Z,99593.91
2022-08-11T02:11:37.778Z,99594.63
2022-08-11T02:14:16.910Z,99596.63
2022-08-11T02:16:54.643Z,99592.72
2022-08-11T02:19:46.066Z,99603.13
2022-08-11T02:22:42.390Z,99590.19
2022-08-11T02:25:19.345Z,99595.66
2022-08-11T02:27:54.394Z,99594.19
2022-08-11T02:30:27.705Z,99590.63
2022-08-11T02:33:25.339Z,99599.03
2022-08-11T02:36:02.980Z,99592.56
2022-08-11T02:38:43.529Z,99596.72
2022-08-11T02:41:35.369Z,99586.81
2022-08-11T02:44:18.626Z,99598.03
2022-08-11T02:46:56.738Z,99596.09
2022-08-11T02:50:06.579Z,99593.03
2022-08-11T02:52:42.382Z,99601.53
2022-08-11T02:55:48.978Z,99597.78
2022-08-11T02:58:27.968Z,99602.59
2022-08-11T03:01:11.781Z,99597.16
2022-08-11T03:03:51.649Z,99596.72
2022-08-11T03:06:36.954Z,99596.38
2022-08-11T03:09:14.586Z,99604.09
2022-08-11T03:12:15.326Z,99596.34
2022-08-11T03:15:09.167Z,99598.66
2022-08-11T03:17:52.711Z,99600.38
2022-08-11T03:20:38.066Z,99608.41
2022-08-11T03:23:20.154Z,99596.00
2022-08-11T03:26:00.143Z,99597.06
2022-08-11T03:28:33.875Z,99597.91
2022-08-11T03:31:21.022Z,99595.25
2022-08-11T03:34:06.837Z,99587.88
2022-08-11T03:37:16.528Z,99590.72
2022-08-11T03:39:57.441Z,99590.88
2022-08-11T03:42:34.014Z,99590.56
2022-08-11T03:45:18.212Z,99588.94
2022-08-11T03:47:59.319Z,99583.28
2022-08-11T03:50:44.212Z,99584.38
2022-08-11T03:53:20.328Z,99592.31
2022-08-11T03:56:24.015Z,99590.91
2022-08-11T03:59:21.702Z,99588.41
2022-08-11T04:02:19.350Z,99594.88
2022-08-11T04:05:21.598Z,99591.09
2022-08-11T04:08:34.674Z,99594.31
2022-08-11T04:11:36.822Z,99598.13
2022-08-11T04:15:00.122Z,99593.88
2022-08-11T04:18:01.495Z,99606.63
2022-08-11T04:20:53.122Z,99603.63
2022-08-11T04:24:36.254Z,99600.69
2022-08-11T04:27:19.198Z,99608.31
2022-08-11T04:30:05.497Z,99608.44
2022-08-11T04:33:07.549Z,99607.63
2022-08-11T04:35:50.747Z,99605.22
2022-08-11T04:39:00.112Z,99606.63
2022-08-11T04:42:31.001Z,99606.50
2022-08-11T04:45:30.151Z,99603.56
2022-08-11T04:48:42.075Z,99613.56
2022-08-11T04:51:50.778Z,99605.66
2022-08-11T04:54:47.852Z,99608.78
2022-08-11T04:57:42.554Z,99607.47
2022-08-11T05:00:32.924Z,99614.81
2022-08-11T05:03:31.488Z,99621.59
2022-08-11T05:06:33.465Z,99626.88
2022-08-11T05:09:46.636Z,99612.97
2022-08-11T05:12:37.717Z,99621.88
2022-08-11T05:15:29.112Z,99622.44
2022-08-11T05:18:19.280Z,99621.03
2022-08-11T05:21:09.696Z,99626.00
2022-08-11T05:24:00.818Z,99633.16
2022-08-11T05:26:55.162Z,99624.66
2022-08-11T05:29:55.040Z,99638.47
2022-08-11T05:32:42.841Z,99634.63
2022-08-11T05:35:59.744Z,99634.13
2022-08-11T05:38:20.224Z,99637.63
2022-08-11T05:41:08.197Z,99636.78
2022-08-11T05:44:20.424Z,99636.06
2022-08-11T05:47:07.119Z,99636.47
2022-08-11T05:49:53.861Z,99641.84
2022-08-11T05:52:42.166Z,99635.81
2022-08-11T05:55:30.262Z,99643.13
2022-08-11T05:58:02.545Z,99643.75
2022-08-11T06:00:32.744Z,99646.38
2022-08-11T06:03:07.656Z,99640.66
2022-08-11T06:05:44.043Z,99637.78
2022-08-11T06:08:14.002Z,99645.16
2022-08-11T06:10:44.483Z,99637.66
2022-08-11T06:13:17.648Z,99643.13
2022-08-11T06:15:47.434Z,99639.63
2022-08-11T06:18:17.517Z,99641.09
2022-08-11T06:20:51.672Z,99638.88
2022-08-11T06:23:24.173Z,99643.75
2022-08-11T06:28:32.558Z,99635.59
2022-08-11T06:31:02.414Z,99630.81
2022-08-11T06:33:47.876Z,99629.28
2022-08-11T06:36:25.394Z,99633.69
2022-08-11T06:39:03.741Z,99633.50
2022-08-11T06:41:39.690Z,99635.75
2022-08-11T06:44:22.491Z,99630.50
2022-08-11T06:46:56.439Z,99635.78
2022-08-11T06:49:53.026Z,99631.28
2022-08-11T06:52:34.288Z,99638.88
2022-08-11T06:55:57.895Z,99632.13
2022-08-11T06:58:18.248Z,99638.59
2022-08-11T07:00:48.859Z,99630.16
2022-08-11T07:03:20.769Z,99626.94
2022-08-11T07:05:55.763Z,99627.09
2022-08-11T07:09:34.691Z,99622.03
2022-08-11T07:12:37.997Z,99628.34
2022-08-11T07:16:11.703Z,99625.09
2022-08-11T07:18:41.203Z,99613.69
2022-08-11T07:22:01.757Z,99621.19
2022-08-11T07:24:59.401Z,99616.19
2022-08-11T07:28:09.206Z,99609.53
2022-08-11T07:30:43.056Z,99617.97
2022-08-11T07:34:05.806Z,99607.59
2022-08-11T07:36:15.090Z,99607.63
2022-08-11T07:38:51.449Z,99612.91
2022-08-11T07:41:21.372Z,99611.47
2022-08-11T07:43:53.969Z,99608.34
2022-08-11T07:46:42.645Z,99609.78
2022-08-11T07:49:29.781Z,99614.72
2022-08-11T07:52:17.091Z,99605.19
2022-08-11T07:54:47.341Z,99613.78
2022-08-11T07:58:10.233Z,99615.25
2022-08-11T08:00:42.877Z,99612.09
2022-08-11T08:03:33.336Z,99608.13
2022-08-11T08:06:35.916Z,99605.88
2022-08-11T08:09:26.324Z,99608.88
2022-08-11T08:12:12.207Z,99606.63
2022-08-11T08:14:57.950Z,99606.34
2022-08-11T08:18:09.014Z,99605.78
2022-08-11T08:20:39.088Z,99604.47
2022-08-11T08:23:09.944Z,99620.75
2022-08-11T08:25:41.879Z,99613.66
2022-08-11T08:28:14.279Z,99606.34
2022-08-11T08:30:48.544Z,99599.66
2022-08-11T08:33:21.004Z,99599.38
2022-08-11T08:35:54.457Z,99590.69
2022-08-11T08:38:25.761Z,99594.59
2022-08-11T08:40:56.829Z,99599.34
2022-08-11T08:43:25.421Z,99597.00
2022-08-11T08:45:57.520Z,99600.34
2022-08-11T08:48:29.039Z,99586.34
2022-08-11T08:51:22.026Z,99595.28
2022-08-11T08:53:58.520Z,99581.00
2022-08-11T08:56:30.412Z,99586.63
2022-08-11T08:59:02.577Z,99578.13
2022-08-11T09:01:34.980Z,99577.19
2022-08-11T09:04:12.144Z,99578.00
2022-08-11T09:06:43.948Z,99573.41
2022-08-11T09:09:17.762Z,99581.56
2022-08-11T09:11:54.603Z,99570.28
2022-08-11T09:14:47.028Z,99578.50
2022-08-11T09:17:15.769Z,99575.09
2022-08-11T09:19:44.842Z,99573.41
2022-08-11T09:22:38.485Z,99564.19
2022-08-11T09:25:25.670Z,99564.75
2022-08-11T09:27:56.732Z,99565.88
2022-08-11T09:30:26.751Z,99568.81
2022-08-11T09:32:58.113Z,99567.34
2022-08-11T09:35:28.016Z,99565.88
2022-08-11T09:38:15.137Z,99576.13
2022-08-11T09:40:56.279Z,99566.06
2022-08-11T09:43:47.189Z,99563.75
2022-08-11T09:46:16.861Z,99572.78
2022-08-11T09:48:47.794Z,99563.16
2022-08-11T09:51:17.068Z,99566.44
2022-08-11T09:53:47.073Z,99563.09
2022-08-11T09:56:49.148Z,99557.16
2022-08-11T09:59:20.765Z,99569.53
2022-08-11T10:01:51.465Z,99558.22
2022-08-11T10:04:24.693Z,99558.66
2022-08-11T10:07:04.404Z,99555.63
2022-08-11T10:09:40.104Z,99549.59
2022-08-11T10:12:12.188Z,99552.28
2022-08-11T10:15:04.382Z,99538.41
2022-08-11T10:17:37.156Z,99537.38
2022-08-11T10:20:10.460Z,99541.16
2022-08-11T10:22:57.249Z,99543.47
2022-08-11T10:25:43.208Z,99544.63
2022-08-11T10:28:33.015Z,99534.19
2022-08-11T10:31:22.673Z,99535.47
2022-08-11T10:34:08.261Z,99533.56
2022-08-11T10:36:52.511Z,99531.19
2022-08-11T10:39:23.322Z,99527.34
2022-08-11T10:42:13.263Z,99513.94
2022-08-11T10:44:48.937Z,99524.25
2022-08-11T10:47:36.849Z,99526.09
2022-08-11T10:50:27.637Z,99524.56
2022-08-11T10:53:15.290Z,99520.34
2022-08-11T10:59:03.978Z,99513.28
2022-08-11T11:01:38.872Z,99510.47
2022-08-11T11:04:14.225Z,99509.63
2022-08-11T11:06:52.106Z,99508.19
2022-08-11T11:09:25.882Z,99503.81
2022-08-11T11:12:18.096Z,99496.66
2022-08-11T11:15:20.931Z,99498.31
2022-08-11T11:18:02.570Z,99489.84
2022-08-11T11:20:46.690Z,99483.97
2022-08-11T11:23:20.140Z,99475.56
2022-08-11T11:26:10.296Z,99479.25
2022-08-11T11:29:13.270Z,99474.13
2022-08-11T11:31:55.175Z,99469.47
2022-08-11T11:34:53.082Z,99473.66
2022-08-11T11:37:25.270Z,99466.91
2022-08-11T11:39:55.614Z,99472.75
2022-08-11T11:42:25.612Z,99475.41
2022-08-11T11:44:56.361Z,99471.84
2022-08-11T11:47:29.252Z,99461.84
2022-08-11T11:49:58.579Z,99473.19
2022-08-11T11:52:29.725Z,99468.50
2022-08-11T11:55:00.550Z,99454.13
2022-08-11T11:57:59.094Z,99448.31
2022-08-11T12:00:49.213Z,99452.03
2022-08-11T12:03:19.775Z,99440.31
2022-08-11T12:05:49.841Z,99440.56
2022-08-11T12:08:23.450Z,99436.50
2022-08-11T12:11:17.451Z,99439.50
2022-08-11T12:13:47.507Z,99428.69
2022-08-11T12:16:33.300Z,99427.84
2022-08-11T12:19:06.395Z,99424.41
2022-08-11T12:21:38.007Z,99430.91
2022-08-11T12:24:28.585Z,99421.44
2022-08-11T12:27:17.851Z,99418.41
2022-08-11T12:29:55.110Z,99416.06
2022-08-11T12:32:28.980Z,99415.41
2022-08-11T12:34:58.347Z,99404.47
2022-08-11T12:37:34.529Z,99401.47
2022-08-11T12:40:42.581Z,99402.19
2022-08-11T12:43:38.280Z,99388.31
2022-08-11T12:46:09.904Z,99383.91
2022-08-11T12:49:02.542Z,99385.38
2022-08-11T12:52:11.127Z,99373.81
2022-08-11T12:54:52.470Z,99376.16
2022-08-11T12:57:49.958Z,99379.44
2022-08-11T13:00:37.430Z,99376.66
2022-08-11T13:03:27.632Z,99369.66
2022-08-11T13:05:59.306Z,99366.16
2022-08-11T13:08:31.286Z,99358.81
2022-08-11T13:11:19.217Z,99361.97
2022-08-11T13:13:57.729Z,99356.59
2022-08-11T13:16:30.943Z,99351.06
2022-08-11T13:19:01.822Z,99361.44
2022-08-11T13:21:31.735Z,99349.63
2022-08-11T13:24:03.052Z,99351.97
2022-08-11T13:26:47.579Z,99353.53
2022-08-11T13:29:33.157Z,99341.59
2022-08-11T13:32:02.299Z,99344.47
2022-08-11T13:34:32.580Z,99335.63
2022-08-11T13:37:02.758Z,99331.78
2022-08-11T13:39:32.414Z,99332.50
2022-08-11T13:42:03.169Z,99340.28
2022-08-11T13:44:36.987Z,99339.75
2022-08-11T13:47:08.537Z,99341.28
2022-08-11T13:49:40.576Z,99328.19
2022-08-11T13:52:13.174Z,99330.19
2022-08-11T13:54:42.872Z,99330.28
2022-08-11T13:58:06.232Z,99328.19
2022-08-11T14:00:27.597Z,99314.81
2022-08-11T14:02:59.264Z,99319.47
2022-08-11T14:05:30.902Z,99322.56
2022-08-11T14:08:02.784Z,99313.09
2022-08-11T14:10:39.352Z,99307.72
2022-08-11T14:13:29.104Z,99311.91
2022-08-11T14:16:19.106Z,99307.19
2022-08-11T14:18:50.798Z,99310.34
2022-08-11T14:21:40.757Z,99301.94
2022-08-11T14:24:11.834Z,99289.09
2022-08-11T14:26:44.637Z,99294.22
2022-08-11T14:29:15.560Z,99282.53
2022-08-11T14:31:49.226Z,99288.22
2022-08-11T14:34:21.428Z,99288.19
2022-08-11T14:36:53.012Z,99283.25
2022-08-11T14:39:24.636Z,99289.06
2022-08-11T14:42:13.668Z,99270.84
2022-08-11T14:45:07.538Z,99280.66
2022-08-11T14:47:39.610Z,99274.47
2022-08-11T14:50:14.092Z,99276.03
2022-08-11T14:52:51.004Z,99286.06
2022-08-11T14:55:39.232Z,99272.84
2022-08-11T14:58:10.679Z,99267.34
2022-08-11T15:00:41.265Z,99264.78
2022-08-11T15:03:13.279Z,99270.03
2022-08-11T15:05:56.981Z,99269.81
2022-08-11T15:08:49.218Z,99259.69
2022-08-11T15:11:37.688Z,99258.47
2022-08-11T15:14:08.315Z,99257.47
2022-08-11T15:16:56.164Z,99248.28
2022-08-11T15:19:40.706Z,99245.19
2022-08-11T15:22:30.338Z,99244.09
2022-08-11T15:25:00.596Z,99246.38
2022-08-11T15:27:49.183Z,99240.69
2022-08-11T15:30:35.508Z,99233.44
2022-08-11T15:33:24.853Z,99235.31
2022-08-11T15:36:13.300Z,99230.88
2022-08-11T15:38:44.703Z,99229.81
2022-08-11T15:41:35.723Z,99221.75
2022-08-11T15:44:59.012Z,99221.78
2022-08-11T15:47:20.103Z,99216.25
2022-08-11T15:50:10.558Z,99220.09
2022-08-11T15:52:52.819Z,99218.16
2022-08-11T15:55:24.785Z,99223.72
2022-08-11T15:58:15.704Z,99214.50
2022-08-11T16:01:08.927Z,99222.03
2022-08-11T16:04:07.240Z,99217.88
2022-08-11T16:06:56.597Z,99222.78
2022-08-11T16:09:51.689Z,99217.81
2022-08-11T16:12:24.705Z,99217.94
2022-08-11T16:15:13.302Z,99212.53
2022-08-11T16:17:44.560Z,99215.03
2022-08-11T16:20:14.782Z,99213.03
2022-08-11T16:22:55.458Z,99207.44
2022-08-11T16:27:02.912Z,99204.94
2022-08-11T16:28:26.682Z,99205.41
2022-08-11T16:30:58.018Z,99202.38
2022-08-11T16:33:50.101Z,99199.97
2022-08-11T16:36:35.372Z,99200.09
2022-08-11T16:39:05.696Z,99199.56
2022-08-11T16:41:55.991Z,99202.88
2022-08-11T16:44:44.359Z,99198.44
2022-08-11T16:48:03.142Z,99197.69
2022-08-11T16:50:09.564Z,99189.38
2022-08-11T16:52:39.124Z,99191.63
2022-08-11T16:55:10.110Z,99187.13
2022-08-11T16:57:59.545Z,99192.44
2022-08-11T17:00:30.269Z,99190.72
2022-08-11T17:03:20.217Z,99195.75
2022-08-11T17:06:09.822Z,99192.06
2022-08-11T17:09:02.298Z,99198.66
2022-08-11T17:11:54.207Z,99197.81
2022-08-11T17:14:35.614Z,99200.19
2022-08-11T17:17:05.810Z,99197.91
2022-08-11T17:20:39.681Z,99190.44
2022-08-11T17:22:42.988Z,99191.53
2022-08-11T17:25:13.369Z,99193.00
2022-08-11T17:27:44.816Z,99186.13
2022-08-11T17:30:18.496Z,99185.81
2022-08-11T17:33:08.119Z,99186.34
2022-08-11T17:35:44.733Z,99191.34
2022-08-11T17:38:16.435Z,99191.13
2022-08-11T17:41:02.760Z,99199.88
2022-08-11T17:43:49.075Z,99194.44
2022-08-11T17:46:37.614Z,99191.66
2022-08-11T17:49:08.377Z,99194.91
2022-08-11T17:51:58.433Z,99195.56
2022-08-11T17:54:45.691Z,99200.19
2022-08-11T17:57:33.696Z,99202.94
2022-08-11T18:00:04.529Z,99201.16
2022-08-11T18:02:55.156Z,99206.06
2022-08-11T18:05:26.969Z,99210.84
2022-08-11T18:08:14.987Z,99204.56
2022-08-11T18:11:01.878Z,99211.53
2022-08-11T18:13:51.889Z,99208.09
2022-08-11T18:16:40.369Z,99205.41
2022-08-11T18:19:30.706Z,99204.69
2022-08-11T18:22:24.393Z,99204.97
2022-08-11T18:25:17.283Z,99214.81
2022-08-11T18:28:05.556Z,99211.66
2022-08-11T18:31:03.436Z,99217.03
2022-08-11T18:34:06.970Z,99217.53
2022-08-11T18:37:07.351Z,99217.66
2022-08-11T18:39:56.601Z,99215.97
2022-08-11T18:42:43.528Z,99217.34
2022-08-11T18:45:35.804Z,99224.72
2022-08-11T18:48:37.437Z,99225.88
2022-08-11T18:51:36.211Z,99232.19
2022-08-11T18:54:27.624Z,99229.75
2022-08-11T18:57:17.916Z,99239.66
2022-08-11T19:00:05.727Z,99232.13
2022-08-11T19:02:55.851Z,99244.31
2022-08-11T19:06:33.693Z,99234.41
2022-08-11T19:08:58.367Z,99244.34
2022-08-11T19:11:48.669Z,99239.22
2022-08-11T19:14:37.644Z,99248.91
2022-08-11T19:17:45.126Z,99247.06
2022-08-11T19:20:35.495Z,99248.84
2022-08-11T19:23:23.834Z,99253.09
2022-08-11T19:26:09.996Z,99254.25
2022-08-11T19:29:00.507Z,99254.25
2022-08-11T19:31:50.290Z,99248.56
2022-08-11T19:34:38.878Z,99252.38
2022-08-11T19:37:26.166Z,99256.06
2022-08-11T19:40:13.949Z,99242.75
2022-08-11T19:43:01.805Z,99249.88
2022-08-11T19:45:54.465Z,99260.78
2022-08-11T19:48:44.429Z,99256.75
2022-08-11T19:51:34.324Z,99256.75
2022-08-11T19:54:21.786Z,99254.72
2022-08-11T19:57:10.105Z,99259.72
2022-08-11T19:59:57.787Z,99261.00
2022-08-11T20:02:47.837Z,99266.06
2022-08-11T20:05:34.902Z,99260.13
2022-08-11T20:08:22.026Z,99260.34
2022-08-11T20:11:10.995Z,99267.88
2022-08-11T20:14:02.346Z,99264.31
2022-08-11T20:16:50.204Z,99272.28
2022-08-11T20:19:56.619Z,99275.16
2022-08-11T20:22:45.180Z,99272.41
2022-08-11T20:25:32.937Z,99280.38
2022-08-11T20:28:19.921Z,99275.69
2022-08-11T20:31:06.072Z,99279.25
2022-08-11T20:33:53.075Z,99277.06
2022-08-11T20:36:40.717Z,99280.88
2022-08-11T20:39:29.141Z,99274.69
2022-08-11T20:42:17.063Z,99274.31
2022-08-11T20:45:03.770Z,99276.78
2022-08-11T20:47:59.061Z,99277.13
2022-08-11T20:50:47.957Z,99270.94
2022-08-11T20:53:40.612Z,99271.72
2022-08-11T20:56:28.749Z,99272.56
2022-08-11T20:59:18.331Z,99280.44
2022-08-11T21:02:10.036Z,99275.78
2022-08-11T21:04:57.568Z,99276.47
2022-08-11T21:07:55.386Z,99279.38
2022-08-11T21:10:47.266Z,99282.53
2022-08-11T21:13:39.410Z,99277.34
2022-08-11T21:16:27.688Z,99277.50
2022-08-11T21:19:55.156Z,99283.78
2022-08-11T21:22:28.192Z,99280.84
2022-08-11T21:25:16.305Z,99280.97
2022-08-11T21:28:05.137Z,99277.03
2022-08-11T21:30:57.786Z,99278.63
2022-08-11T21:33:46.235Z,99282.03
2022-08-11T21:36:34.136Z,99280.56
2022-08-11T21:39:24.932Z,99289.00
2022-08-11T21:42:12.615Z,99289.34
2022-08-11T21:45:01.748Z,99282.38
2022-08-11T21:47:48.012Z,99281.38
2022-08-11T21:50:33.962Z,99283.03
2022-08-11T21:53:20.675Z,99284.06
2022-08-11T21:56:11.042Z,99287.19
2022-08-11T21:59:06.831Z,99285.81
2022-08-11T22:01:55.464Z,99288.22
2022-08-11T22:04:43.995Z,99291.03
2022-08-11T22:07:34.396Z,99295.25
2022-08-11T22:10:41.134Z,99302.38
2022-08-11T22:13:31.032Z,99297.59
2022-08-11T22:16:19.828Z,99303.31
2022-08-11T22:19:09.748Z,99291.41
2022-08-11T22:22:01.511Z,99299.75
2022-08-11T22:24:51.907Z,99298.16
2022-08-11T22:27:37.813Z,99299.91
2022-08-11T22:30:25.136Z,99301.84
2022-08-11T22:33:12.297Z,99300.47
2022-08-11T22:36:04.135Z,99297.47
2022-08-11T22:38:51.286Z,99310.34
2022-08-11T22:41:37.360Z,99308.19
2022-08-11T22:44:23.856Z,99308.13
2022-08-11T22:47:10.765Z,99313.19
2022-08-11T22:49:59.181Z,99307.75
2022-08-11T22:52:47.427Z,99304.09
2022-08-11T22:55:34.139Z,99305.91
2022-08-11T22:58:21.029Z,99304.78
2022-08-11T23:01:07.518Z,99306.72
2022-08-11T23:03:53.826Z,99304.34
2022-08-11T23:06:41.419Z,99306.69
2022-08-11T23:09:29.097Z,99309.75
2022-08-11T23:12:16.440Z,99309.53
2022-08-11T23:15:03.487Z,99314.22
2022-08-11T23:17:50.397Z,99310.22
2022-08-11T23:20:41.539Z,99307.72
2022-08-11T23:23:30.987Z,99313.16
2022-08-11T23:26:20.796Z,99310.47
2022-08-11T23:29:06.587Z,99305.75
2022-08-11T23:31:54.020Z,99302.25
2022-08-11T23:35:03.710Z,99306.69
2022-08-11T23:37:51.124Z,99303.78
2022-08-11T23:40:37.503Z,99299.34
2022-08-11T23:43:26.178Z,99298.16
2022-08-11T23:46:11.999Z,99299.69
2022-08-11T23:48:58.301Z,99293.28
2022-08-11T23:51:46.799Z,99292.84
2022-08-11T23:54:37.393Z,99302.84
2022-08-11T23:57:23.946Z,99297.28
